createdAt,value
2023-01-23T00:00:11.123Z,35.53
2023-01-23T00:03:12.763Z,37.45
2023-01-23T00:06:16.192Z,38.65
2023-01-23T00:09:17.909Z,43.42
2023-01-23T00:12:19.597Z,35.00
2023-01-23T00:15:21.265Z,33.85
2023-01-23T00:18:22.935Z,35.17
2023-01-23T00:21:28.104Z,30.40
2023-01-23T00:24:29.743Z,25.80
2023-01-23T00:27:31.717Z,27.65
2023-01-23T00:30:34.022Z,26.80
2023-01-23T00:33:35.818Z,28.12
2023-01-23T00:36:39.582Z,24.30
2023-01-23T00:39:41.200Z,27.15
2023-01-23T00:42:42.816Z,24.67
2023-01-23T00:45:44.461Z,26.55
2023-01-23T00:48:46.177Z,26.27
2023-01-23T00:51:47.917Z,24.83
2023-01-23T00:54:49.585Z,26.20
2023-01-23T00:57:51.338Z,26.58
2023-01-23T01:00:53.066Z,26.40
2023-01-23T01:03:54.903Z,21.62
2023-01-23T01:06:56.608Z,25.55
2023-01-23T01:09:58.293Z,24.40
2023-01-23T01:13:02.187Z,20.77
2023-01-23T01:16:04.227Z,22.25
2023-01-23T01:19:05.944Z,21.42
2023-01-23T01:22:07.637Z,24.37
2023-01-23T01:25:09.773Z,25.25
2023-01-23T01:28:11.670Z,24.58
2023-01-23T01:31:14.875Z,23.87
2023-01-23T01:34:16.670Z,24.85
2023-01-23T01:37:18.421Z,23.17
2023-01-23T01:40:26.140Z,24.63
2023-01-23T01:43:28.405Z,21.27
2023-01-23T01:46:31.092Z,24.25
2023-01-23T01:49:35.357Z,22.77
2023-01-23T01:52:37.052Z,20.88
2023-01-23T01:55:39.989Z,20.10
2023-01-23T01:58:45.108Z,19.67
2023-01-23T02:01:50.120Z,19.50
2023-01-23T02:04:58.189Z,18.42
2023-01-23T02:08:05.678Z,19.08
2023-01-23T02:14:10.414Z,20.17
2023-01-23T02:17:12.507Z,19.62
2023-01-23T02:20:28.525Z,17.90
2023-01-23T02:24:00.467Z,15.68
2023-01-23T02:27:03.254Z,15.77
2023-01-23T02:30:07.908Z,21.23
2023-01-23T02:33:24.704Z,17.45
2023-01-23T02:36:29.504Z,17.75
2023-01-23T02:39:31.715Z,15.88
2023-01-23T02:42:34.439Z,15.77
2023-01-23T02:45:37.017Z,25.08
2023-01-23T02:48:43.967Z,16.25
2023-01-23T02:51:45.850Z,16.58
2023-01-23T02:54:47.713Z,16.02
2023-01-23T02:57:49.430Z,13.02
2023-01-23T03:00:51.090Z,14.13
2023-01-23T03:03:53.596Z,16.33
2023-01-23T03:06:55.273Z,18.02
2023-01-23T03:09:56.888Z,15.25
2023-01-23T03:13:07.362Z,13.32
2023-01-23T03:16:09.752Z,16.42
2023-01-23T03:19:11.414Z,19.15
2023-01-23T03:22:13.104Z,17.30
2023-01-23T03:25:14.866Z,15.32
2023-01-23T03:28:35.252Z,13.43
2023-01-23T03:31:37.024Z,10.80
2023-01-23T03:34:39.586Z,12.40
2023-01-23T03:37:41.312Z,14.10
2023-01-23T03:41:01.460Z,12.00
2023-01-23T03:44:03.196Z,15.10
2023-01-23T03:47:05.572Z,13.15
2023-01-23T03:50:08.112Z,12.85
2023-01-23T03:53:09.810Z,9.73
2023-01-23T03:56:11.502Z,18.87
2023-01-23T03:59:13.170Z,12.45
2023-01-23T04:02:14.890Z,15.00
2023-01-23T04:05:16.744Z,12.90
2023-01-23T04:08:18.398Z,13.70
2023-01-23T04:11:20.612Z,14.95
2023-01-23T04:14:23.379Z,12.77
2023-01-23T04:17:25.066Z,14.70
2023-01-23T04:20:26.731Z,11.40
2023-01-23T04:23:28.468Z,13.30
2023-01-23T04:26:30.183Z,17.25
2023-01-23T04:29:31.857Z,14.80
2023-01-23T04:32:33.538Z,14.65
2023-01-23T04:35:35.664Z,12.95
2023-01-23T04:38:37.413Z,13.62
2023-01-23T04:41:39.041Z,13.62
2023-01-23T04:44:40.707Z,13.82
2023-01-23T04:47:42.335Z,14.82
2023-01-23T04:50:44.489Z,15.48
2023-01-23T04:53:46.155Z,12.57
2023-01-23T04:56:49.640Z,11.90
2023-01-23T04:59:51.425Z,14.25
2023-01-23T05:02:53.075Z,11.88
2023-01-23T05:05:54.749Z,11.12
2023-01-23T05:08:56.458Z,12.23
2023-01-23T05:11:58.092Z,11.07
2023-01-23T05:14:59.817Z,11.00
2023-01-23T05:18:01.553Z,11.15
2023-01-23T05:21:03.383Z,10.55
2023-01-23T05:24:05.453Z,12.15
2023-01-23T05:27:07.116Z,20.55
2023-01-23T05:30:09.443Z,13.82
2023-01-23T05:33:11.139Z,12.02
2023-01-23T05:36:12.840Z,13.98
2023-01-23T05:39:14.628Z,15.13
2023-01-23T05:42:16.284Z,13.02
2023-01-23T05:45:18.249Z,14.82
2023-01-23T05:48:19.916Z,13.60
2023-01-23T05:51:23.498Z,11.52
2023-01-23T05:54:25.287Z,11.75
2023-01-23T05:57:27.234Z,12.73
2023-01-23T06:00:29.177Z,12.70
2023-01-23T06:03:30.980Z,13.48
2023-01-23T06:06:32.654Z,13.38
2023-01-23T06:09:34.318Z,13.55
2023-01-23T06:12:36.006Z,14.73
2023-01-23T06:15:37.919Z,11.98
2023-01-23T06:18:39.595Z,13.93
2023-01-23T06:21:41.389Z,17.08
2023-01-23T06:24:43.032Z,19.48
2023-01-23T06:27:44.717Z,10.32
2023-01-23T06:30:46.477Z,10.82
2023-01-23T06:33:52.242Z,13.98
2023-01-23T06:36:53.890Z,11.05
2023-01-23T06:39:55.511Z,9.50
2023-01-23T06:42:57.248Z,8.88
2023-01-23T06:45:59.013Z,11.60
2023-01-23T06:49:00.848Z,9.98
2023-01-23T06:52:02.500Z,10.75
2023-01-23T06:55:04.823Z,12.25
2023-01-23T06:58:07.303Z,11.12
2023-01-23T07:01:16.093Z,12.65
2023-01-23T07:04:17.895Z,13.75
2023-01-23T07:07:19.882Z,13.73
2023-01-23T07:10:23.153Z,15.52
2023-01-23T07:13:24.853Z,28.60
2023-01-23T07:16:26.537Z,12.02
2023-01-23T07:19:28.276Z,12.55
2023-01-23T07:22:29.911Z,11.00
2023-01-23T07:25:31.675Z,9.57
2023-01-23T07:28:33.347Z,10.73
2023-01-23T07:31:36.075Z,14.98
2023-01-23T07:34:37.744Z,11.73
2023-01-23T07:37:39.370Z,10.45
2023-01-23T07:40:42.987Z,12.52
2023-01-23T07:43:44.677Z,10.00
2023-01-23T07:46:47.582Z,11.50
2023-01-23T07:49:49.215Z,9.85
2023-01-23T07:52:50.852Z,9.80
2023-01-23T07:55:52.508Z,10.88
2023-01-23T07:58:57.266Z,8.40
2023-01-23T08:01:59.085Z,7.15
2023-01-23T08:05:00.822Z,8.30
2023-01-23T08:08:13.597Z,11.85
2023-01-23T08:11:16.058Z,12.68
2023-01-23T08:14:17.733Z,11.70
2023-01-23T08:17:19.472Z,10.55
2023-01-23T08:20:23.097Z,8.25
2023-01-23T08:23:26.738Z,11.70
2023-01-23T08:26:28.426Z,8.30
2023-01-23T08:29:31.454Z,10.70
2023-01-23T08:32:35.585Z,9.13
2023-01-23T08:35:37.821Z,7.82
2023-01-23T08:38:39.808Z,7.68
2023-01-23T08:41:41.466Z,8.95
2023-01-23T08:44:43.120Z,8.05
2023-01-23T08:47:44.771Z,8.52
2023-01-23T08:50:46.952Z,8.85
2023-01-23T08:53:52.628Z,10.38
2023-01-23T08:56:54.326Z,11.70
2023-01-23T08:59:56.285Z,11.82
2023-01-23T09:03:04.573Z,12.37
2023-01-23T09:06:06.777Z,10.48
2023-01-23T09:09:08.450Z,11.50
2023-01-23T09:12:10.100Z,11.75
2023-01-23T09:15:11.846Z,15.60
2023-01-23T09:18:13.539Z,10.35
2023-01-23T09:21:17.030Z,11.77
2023-01-23T09:24:18.691Z,23.17
2023-01-23T09:27:21.150Z,16.48
2023-01-23T09:30:23.127Z,17.48
2023-01-23T09:33:27.228Z,9.68
2023-01-23T09:36:42.110Z,19.95
2023-01-23T09:39:44.980Z,16.85
2023-01-23T09:42:46.893Z,16.67
2023-01-23T09:46:05.680Z,18.87
2023-01-23T09:49:25.402Z,11.30
2023-01-23T09:52:34.690Z,10.68
2023-01-23T09:55:36.277Z,8.88
2023-01-23T09:58:47.575Z,11.35
2023-01-23T10:01:49.260Z,10.70
2023-01-23T10:04:53.187Z,8.10
2023-01-23T10:08:27.843Z,20.00
2023-01-23T10:11:37.446Z,13.50
2023-01-23T10:14:57.297Z,6.70
2023-01-23T10:18:23.749Z,15.82
2023-01-23T10:21:45.925Z,57.88
2023-01-23T10:24:53.851Z,15.30
2023-01-23T10:28:00.667Z,31.58
2023-01-23T10:31:08.572Z,40.70
2023-01-23T10:34:10.173Z,20.70
2023-01-23T10:37:31.611Z,32.13
2023-01-23T10:40:51.923Z,41.60
2023-01-23T10:43:55.856Z,24.17
2023-01-23T10:47:01.971Z,48.87
2023-01-23T10:50:05.635Z,34.10
2023-01-23T10:53:18.080Z,29.95
2023-01-23T10:56:20.511Z,25.25
2023-01-23T10:59:55.090Z,14.27
2023-01-23T11:02:57.009Z,9.93
2023-01-23T11:06:07.727Z,31.37
2023-01-23T11:09:20.105Z,12.30
2023-01-23T11:12:26.131Z,14.73
2023-01-23T11:15:28.963Z,20.10
2023-01-23T11:18:30.549Z,13.23
2023-01-23T11:21:37.256Z,18.80
2023-01-23T11:24:41.578Z,8.90
2023-01-23T11:27:58.133Z,13.98
2023-01-23T11:31:21.483Z,14.63
2023-01-23T11:34:29.331Z,26.58
2023-01-23T11:37:36.833Z,11.05
2023-01-23T11:43:41.504Z,17.55
2023-01-23T11:47:04.509Z,17.50
2023-01-23T11:50:49.934Z,17.67
2023-01-23T11:54:20.998Z,19.55
2023-01-23T11:57:50.832Z,19.08
2023-01-23T12:01:05.190Z,13.38
2023-01-23T12:04:32.128Z,9.20
2023-01-23T12:07:48.028Z,15.73
2023-01-23T12:11:16.540Z,12.95
2023-01-23T12:17:42.845Z,17.25
2023-01-23T12:20:53.559Z,13.68
2023-01-23T12:24:06.707Z,10.80
2023-01-23T12:27:16.973Z,11.18
2023-01-23T12:30:39.030Z,8.38
2023-01-23T12:34:06.697Z,11.50
2023-01-23T12:37:37.112Z,9.90
2023-01-23T12:40:46.748Z,12.85
2023-01-23T12:43:57.280Z,13.40
2023-01-23T12:47:11.078Z,10.75
2023-01-23T12:50:38.227Z,19.37
2023-01-23T12:53:43.153Z,16.60
2023-01-23T12:56:45.172Z,10.38
2023-01-23T13:00:01.644Z,13.77
2023-01-23T13:03:37.560Z,17.55
2023-01-23T13:07:37.762Z,11.00
2023-01-23T13:11:22.172Z,9.98
2023-01-23T13:14:43.502Z,11.40
2023-01-23T13:17:56.908Z,11.48
2023-01-23T13:21:18.586Z,10.85
2023-01-23T13:25:04.686Z,14.00
2023-01-23T13:28:44.547Z,11.63
2023-01-23T13:31:50.359Z,19.20
2023-01-23T13:34:52.349Z,16.50
2023-01-23T13:37:54.153Z,18.50
2023-01-23T13:41:04.638Z,8.55
2023-01-23T13:44:35.727Z,11.15
2023-01-23T14:22:17.658Z,7.95
2023-01-23T14:25:19.744Z,7.78
2023-01-23T14:28:21.490Z,11.20
2023-01-23T14:31:29.439Z,12.98
2023-01-23T14:34:39.679Z,11.70
2023-01-23T14:37:41.643Z,13.90
2023-01-23T14:40:50.619Z,20.33
2023-01-23T14:43:55.577Z,13.15
2023-01-23T14:47:00.102Z,11.48
2023-01-23T14:50:02.861Z,13.62
2023-01-23T14:53:13.576Z,10.50
2023-01-23T14:56:15.486Z,17.00
2023-01-23T14:59:28.023Z,48.58
2023-01-23T15:02:31.285Z,39.35
2023-01-23T15:05:33.628Z,24.15
2023-01-23T15:08:36.754Z,18.77
2023-01-23T15:11:38.456Z,20.98
2023-01-23T15:14:40.546Z,10.25
2023-01-23T15:17:46.072Z,11.77
2023-01-23T15:20:59.548Z,9.63
2023-01-23T15:24:06.342Z,11.57
2023-01-23T15:27:30.910Z,7.43
2023-01-23T15:30:35.634Z,10.68
2023-01-23T15:33:41.282Z,11.07
2023-01-23T15:36:50.467Z,5.57
2023-01-23T15:40:01.905Z,12.10
2023-01-23T15:43:21.756Z,6.68
2023-01-23T15:46:23.390Z,6.30
2023-01-23T15:49:26.527Z,10.25
2023-01-23T15:52:50.052Z,5.95
2023-01-23T15:55:51.751Z,11.00
2023-01-23T15:58:53.774Z,16.23
2023-01-23T16:01:55.694Z,14.07
2023-01-23T16:04:57.379Z,17.17
2023-01-23T16:08:03.406Z,16.12
2023-01-23T16:11:05.122Z,8.82
2023-01-23T16:14:11.336Z,7.57
2023-01-23T16:17:17.012Z,8.43
2023-01-23T16:20:23.054Z,10.80
2023-01-23T16:23:24.932Z,8.35
2023-01-23T16:26:27.937Z,8.30
2023-01-23T16:29:34.763Z,46.15
2023-01-23T16:32:36.985Z,12.63
2023-01-23T16:35:39.094Z,7.10
2023-01-23T16:38:43.291Z,7.57
2023-01-23T16:41:46.752Z,8.68
2023-01-23T16:44:49.245Z,6.82
2023-01-23T16:47:51.868Z,8.85
2023-01-23T16:51:02.096Z,10.02
2023-01-23T16:54:17.623Z,7.97
2023-01-23T16:57:21.541Z,7.25
2023-01-23T17:00:34.437Z,9.13
2023-01-23T17:03:40.821Z,9.15
2023-01-23T17:06:43.450Z,9.85
2023-01-23T17:09:47.392Z,9.40
2023-01-23T17:12:51.993Z,7.18
2023-01-23T17:15:56.698Z,7.50
2023-01-23T17:19:01.172Z,12.85
2023-01-23T17:22:05.787Z,25.70
2023-01-23T17:25:16.813Z,13.02
2023-01-23T17:28:20.435Z,8.13
2023-01-23T17:31:29.279Z,16.25
2023-01-23T17:34:48.930Z,12.02
2023-01-23T17:37:52.200Z,10.18
2023-01-23T17:40:54.241Z,12.05
2023-01-23T17:43:56.272Z,10.07
2023-01-23T17:46:58.800Z,12.90
2023-01-23T17:50:03.582Z,15.82
2023-01-23T17:53:06.106Z,14.87
2023-01-23T17:56:08.091Z,16.08
2023-01-23T17:59:10.351Z,10.88
2023-01-23T18:02:40.919Z,14.60
2023-01-23T18:05:42.871Z,14.63
2023-01-23T18:08:45.474Z,23.87
2023-01-23T18:11:54.899Z,26.05
2023-01-23T18:15:31.777Z,22.75
2023-01-23T18:18:37.644Z,19.25
2023-01-23T18:21:41.987Z,13.35
2023-01-23T18:24:44.897Z,11.20
2023-01-23T18:27:52.299Z,9.00
2023-01-23T18:31:09.719Z,11.50
2023-01-23T18:34:19.988Z,12.05
2023-01-23T18:37:46.278Z,12.10
2023-01-23T18:41:13.851Z,8.32
2023-01-23T18:44:27.178Z,9.93
2023-01-23T18:47:30.270Z,11.63
2023-01-23T18:50:34.289Z,14.52
2023-01-23T18:54:13.568Z,11.98
2023-01-23T18:57:25.341Z,8.00
2023-01-23T19:00:45.281Z,10.13
2023-01-23T19:03:49.656Z,9.43
2023-01-23T19:06:54.550Z,11.27
2023-01-23T19:09:58.188Z,8.70
2023-01-23T19:13:21.371Z,11.07
2023-01-23T19:16:36.384Z,11.45
2023-01-23T19:20:05.457Z,12.05
2023-01-23T19:23:27.052Z,15.30
2023-01-23T19:26:32.848Z,8.65
2023-01-23T19:29:36.784Z,12.02
2023-01-23T19:32:42.608Z,15.85
2023-01-23T19:35:48.914Z,14.15
2023-01-23T19:39:01.956Z,13.98
2023-01-23T19:42:05.961Z,12.48
2023-01-23T19:45:20.807Z,14.02
2023-01-23T19:48:23.894Z,13.20
2023-01-23T19:51:27.217Z,13.35
2023-01-23T19:54:29.658Z,18.12
2023-01-23T19:57:34.305Z,15.82
2023-01-23T20:00:38.533Z,21.37
2023-01-23T20:03:41.636Z,15.70
2023-01-23T20:06:46.981Z,14.27
2023-01-23T20:09:49.391Z,15.50
2023-01-23T20:12:52.782Z,10.52
2023-01-23T20:15:55.518Z,13.55
2023-01-23T20:18:59.287Z,11.50
2023-01-23T20:22:01.863Z,13.07
2023-01-23T20:25:10.315Z,11.27
2023-01-23T20:28:13.514Z,12.07
2023-01-23T20:31:16.215Z,13.45
2023-01-23T20:34:18.914Z,15.77
2023-01-23T20:37:22.605Z,10.73
2023-01-23T20:40:25.309Z,13.88
2023-01-23T20:43:27.867Z,16.40
2023-01-23T20:46:32.496Z,13.05
2023-01-23T20:49:35.145Z,12.20
2023-01-23T20:52:56.654Z,12.75
2023-01-23T20:56:05.552Z,16.35
2023-01-23T20:59:19.360Z,14.70
2023-01-23T21:02:25.323Z,12.15
2023-01-23T21:05:32.757Z,12.35
2023-01-23T21:08:36.764Z,13.90
2023-01-23T21:11:39.424Z,16.23
2023-01-23T21:14:42.062Z,16.00
2023-01-23T21:17:44.097Z,18.27
2023-01-23T21:20:46.115Z,21.85
2023-01-23T21:23:49.409Z,33.90
2023-01-23T21:26:51.789Z,32.60
2023-01-23T21:29:53.693Z,30.27
2023-01-23T21:32:55.668Z,27.02
2023-01-23T21:35:58.704Z,14.30
2023-01-23T21:39:00.730Z,17.60
2023-01-23T21:42:02.538Z,26.25
2023-01-23T21:45:04.554Z,18.83
2023-01-23T21:48:06.322Z,12.57
2023-01-23T21:51:15.735Z,14.07
2023-01-23T21:54:17.412Z,12.37
2023-01-23T21:57:19.040Z,13.88
2023-01-23T22:00:39.461Z,14.02
2023-01-23T22:03:41.079Z,12.93
2023-01-23T22:06:44.137Z,14.90
2023-01-23T22:09:45.802Z,10.57
2023-01-23T22:12:47.550Z,13.73
2023-01-23T22:15:49.219Z,14.48
2023-01-23T22:18:50.984Z,16.37
2023-01-23T22:21:55.894Z,13.55
2023-01-23T22:24:57.527Z,16.67
2023-01-23T22:27:59.155Z,12.85
2023-01-23T22:31:11.085Z,13.52
2023-01-23T22:34:12.795Z,14.02
2023-01-23T22:37:14.492Z,14.38
2023-01-23T22:40:16.469Z,15.75
2023-01-23T22:43:18.111Z,13.05
2023-01-23T22:46:19.769Z,17.10
2023-01-23T22:49:21.599Z,13.48
2023-01-23T22:52:23.217Z,14.18
2023-01-23T22:55:24.917Z,14.00
2023-01-23T22:58:26.902Z,14.30
2023-01-23T23:01:28.950Z,14.23
2023-01-23T23:04:30.777Z,12.85
2023-01-23T23:07:33.346Z,17.02
2023-01-23T23:10:34.953Z,13.35
2023-01-23T23:13:38.683Z,12.82
2023-01-23T23:16:41.043Z,13.30
2023-01-23T23:19:42.701Z,11.93
2023-01-23T23:22:45.008Z,13.10
2023-01-23T23:25:46.751Z,12.48
2023-01-23T23:28:48.428Z,18.87
2023-01-23T23:31:52.881Z,13.10
2023-01-23T23:34:54.601Z,13.48
2023-01-23T23:37:56.242Z,16.40
2023-01-23T23:41:03.553Z,12.27
2023-01-23T23:44:05.439Z,12.27
2023-01-23T23:47:07.087Z,18.62
2023-01-23T23:50:09.552Z,13.62
2023-01-23T23:53:11.248Z,14.90
2023-01-23T23:56:20.274Z,12.18
2023-01-23T23:59:21.883Z,11.52
